Fair Oaks, Texas
Current Conditions -  °F | °C
As of 7:55 AM on Monday 24 Nov 2014 (Local Time) from K5C1 Reporting Station
Clear Clear  
Wind Chill: 42°   Ceiling: Unl
Heat Index: 46°   Visibility: 10mi
Dew Point: 34°   Wind: 8mph
Humidity: 62%   Direction: 330°NNW
Pressure: 30.06"   Gusts: NA
Location:  29.7214°N, 98.6455°W
Report Text: K5C1 241355Z AUTO 33007KT 10SM CLR 08/01 A3006 RMK AO1
Loading
Personal Weather Stations






























Interactive Weather Map New forecast layout! Learn more

10-Day Weather Forecast

Advertisements
Track Severe Weather on mobile